Time;durP1;ratioP1;P1;durP2;ratioP2;P2;SDS_P1;SDS_P2;PMS_P1;PMS_P2;Temp;Humidity;BMP_temperature;BMP_pressure;BME280_temperature;BME280_humidity;BME280_pressure;Samples;Min_cycle;Max_cycle;Signal;HPM_P1;HPM_P2
2022/09/04 00:00:25;;;;;;;3.60;2.88;;;;;;;;;;4992625;28;20117;-87
2022/09/04 00:02:54;;;;;;;3.17;2.88;;;;;;;;;;4945648;28;20126;-87
2022/09/04 00:05:31;;;;;;;3.30;2.90;;;;;;;;;;4950630;28;20047;-87
2022/09/04 00:08:02;;;;;;;3.88;3.10;;;;;;;;;;4951194;29;20460;-87
2022/09/04 00:10:30;;;;;;;4.68;2.90;;;;;;;;;;4935503;29;20392;-87
2022/09/04 00:13:03;;;;;;;4.50;2.90;;;;;;;;;;4950908;28;20059;-87
2022/09/04 00:15:34;;;;;;;6.50;3.20;;;;;;;;;;4950465;29;20103;-87
2022/09/04 00:18:13;;;;;;;4.25;3.28;;;;;;;;;;4949570;28;20488;-87
2022/09/04 00:20:39;;;;;;;3.90;3.50;;;;;;;;;;4933716;29;20063;-87
2022/09/04 00:23:17;;;;;;;3.90;2.80;;;;;;;;;;4950429;29;20118;-87
2022/09/04 00:25:43;;;;;;;6.32;3.10;;;;;;;;;;4935625;29;20374;-87
2022/09/04 00:28:16;;;;;;;3.90;2.90;;;;;;;;;;4950872;28;20054;-86
2022/09/04 00:30:49;;;;;;;5.35;3.50;;;;;;;;;;4934204;29;20055;-87
2022/09/04 00:33:25;;;;;;;6.70;3.20;;;;;;;;;;4946102;28;20097;-86
2022/09/04 00:35:57;;;;;;;4.90;3.10;;;;;;;;;;4972878;28;20058;-87
2022/09/04 00:38:33;;;;;;;4.78;3.10;;;;;;;;;;4971001;28;20377;-87
2022/09/04 00:41:08;;;;;;;4.63;3.22;;;;;;;;;;4971244;28;20054;-87
2022/09/04 00:43:46;;;;;;;3.50;3.10;;;;;;;;;;4972442;28;20051;-87
2022/09/04 00:46:31;;;;;;;4.60;3.47;;;;;;;;;;4972262;28;20042;-87
2022/09/04 00:49:12;;;;;;;3.35;3.00;;;;;;;;;;4971467;28;20404;-87
2022/09/04 00:51:39;;;;;;;4.28;3.30;;;;;;;;;;4971404;28;20053;-87
2022/09/04 00:54:23;;;;;;;4.72;3.40;;;;;;;;;;4970461;28;20054;-87
2022/09/04 00:56:57;;;;;;;4.38;3.22;;;;;;;;;;4971192;28;20051;-86
2022/09/04 00:59:42;;;;;;;4.35;3.55;;;;;;;;;;4971648;28;20399;-87
2022/09/04 01:02:15;;;;;;;4.90;3.50;;;;;;;;;;4987483;28;20062;-87
2022/09/04 01:04:56;;;;;;;4.38;3.10;;;;;;;;;;4991220;28;20050;-87
2022/09/04 01:07:22;;;;;;;4.32;3.67;;;;;;;;;;4982778;28;20046;-86
2022/09/04 01:09:48;;;;;;;6.15;3.40;;;;;;;;;;4981860;28;20446;-87
2022/09/04 01:12:27;;;;;;;4.10;3.35;;;;;;;;;;4987165;28;20466;-87
2022/09/04 01:14:54;;;;;;;4.35;3.25;;;;;;;;;;4971492;28;20046;-87
2022/09/04 01:17:22;;;;;;;4.60;3.40;;;;;;;;;;4971555;28;20050;-87
2022/09/04 01:19:51;;;;;;;4.13;3.10;;;;;;;;;;4972090;28;20109;-87
2022/09/04 01:22:39;;;;;;;6.82;3.10;;;;;;;;;;4970486;28;20573;-87
2022/09/04 01:25:24;;;;;;;4.75;3.13;;;;;;;;;;4970249;28;20061;-86
2022/09/04 01:28:03;;;;;;;4.63;3.10;;;;;;;;;;4971020;28;20131;-87
2022/09/04 01:30:32;;;;;;;3.58;3.05;;;;;;;;;;4975553;28;20047;-87
2022/09/04 01:33:18;;;;;;;4.15;3.30;;;;;;;;;;4987199;28;20046;-87
2022/09/04 01:36:03;;;;;;;5.40;2.95;;;;;;;;;;4990337;28;20042;-87
2022/09/04 01:38:40;;;;;;;4.63;3.17;;;;;;;;;;4975111;28;20042;-87
2022/09/04 01:41:26;;;;;;;3.55;3.03;;;;;;;;;;4971693;28;20046;-87
2022/09/04 01:43:52;;;;;;;5.15;3.25;;;;;;;;;;4969844;28;20055;-87
2022/09/04 01:46:26;;;;;;;4.15;3.20;;;;;;;;;;4969997;28;20042;-87
2022/09/04 01:48:57;;;;;;;4.82;3.13;;;;;;;;;;4972581;28;20135;-87
2022/09/04 01:51:23;;;;;;;4.47;3.10;;;;;;;;;;4971747;28;20515;-88
2022/09/04 01:54:13;;;;;;;4.13;3.33;;;;;;;;;;4971588;28;20050;-87
2022/09/04 01:57:08;;;;;;;4.35;3.20;;;;;;;;;;4967925;28;20046;-87
2022/09/04 01:59:48;;;;;;;3.47;3.08;;;;;;;;;;4957172;28;20066;-87
2022/09/04 02:02:24;;;;;;;4.28;3.20;;;;;;;;;;4969742;28;20047;-87
2022/09/04 02:05:09;;;;;;;4.07;2.97;;;;;;;;;;4970036;28;20090;-87
2022/09/04 02:07:49;;;;;;;5.32;3.33;;;;;;;;;;4976844;28;20507;-87
2022/09/04 02:10:34;;;;;;;4.32;3.10;;;;;;;;;;4989055;28;20051;-87
2022/09/04 02:13:01;;;;;;;5.70;3.22;;;;;;;;;;4969323;28;20420;-87
2022/09/04 02:15:48;;;;;;;3.90;3.10;;;;;;;;;;4970611;28;20058;-87
2022/09/04 02:18:14;;;;;;;;;;;;;;;;;;4971208;28;20492;-87
2022/09/04 02:20:46;;;;;;;5.25;3.10;;;;;;;;;;4971071;28;19965;-87
2022/09/04 02:23:28;;;;;;;5.78;3.30;;;;;;;;;;4979132;28;20055;-88
2022/09/04 02:25:54;;;;;;;4.40;3.20;;;;;;;;;;4987710;28;20125;-87
2022/09/04 02:28:39;;;;;;;6.53;3.45;;;;;;;;;;4978575;28;20129;-87
2022/09/04 02:31:08;;;;;;;4.95;3.45;;;;;;;;;;4968733;28;20053;-87
2022/09/04 02:33:51;;;;;;;4.70;3.38;;;;;;;;;;4970776;28;20045;-87
2022/09/04 02:36:17;;;;;;;4.18;3.20;;;;;;;;;;4969387;28;20084;-87
2022/09/04 02:38:59;;;;;;;4.72;3.38;;;;;;;;;;4988702;28;20045;-87
2022/09/04 02:41:38;;;;;;;4.45;3.17;;;;;;;;;;4972128;28;20058;-88
2022/09/04 02:44:04;;;;;;;6.85;3.28;;;;;;;;;;4953808;28;20046;-88
2022/09/04 02:46:48;;;;;;;4.68;3.15;;;;;;;;;;4973116;28;20049;-87
2022/09/04 02:49:33;;;;;;;5.05;3.20;;;;;;;;;;4973258;28;20078;-87
2022/09/04 02:52:15;;;;;;;4.40;3.63;;;;;;;;;;4979113;28;20132;-87
2022/09/04 02:54:57;;;;;;;6.25;3.85;;;;;;;;;;4988210;28;20085;-87
2022/09/04 02:57:26;;;;;;;6.35;3.50;;;;;;;;;;4976854;28;20062;-87
2022/09/04 03:00:18;;;;;;;5.43;3.60;;;;;;;;;;4993243;28;20119;-87
2022/09/04 03:02:48;;;;;;;4.25;3.20;;;;;;;;;;4992644;28;20399;-87
2022/09/04 03:05:14;;;;;;;3.95;3.55;;;;;;;;;;4992451;28;20495;-88
2022/09/04 03:07:43;;;;;;;4.85;3.78;;;;;;;;;;4991521;28;20055;-87
2022/09/04 03:10:15;;;;;;;6.30;3.60;;;;;;;;;;4981901;28;20094;-87
2022/09/04 03:13:01;;;;;;;5.78;3.53;;;;;;;;;;4973910;28;20055;-87
2022/09/04 03:15:38;;;;;;;7.32;3.80;;;;;;;;;;4972535;28;20059;-87
2022/09/04 03:18:25;;;;;;;6.95;4.07;;;;;;;;;;4972892;28;20051;-87
2022/09/04 03:20:55;;;;;;;5.15;3.70;;;;;;;;;;4979171;28;20094;-87
2022/09/04 03:23:27;;;;;;;5.45;3.65;;;;;;;;;;4976555;28;20380;-87
2022/09/04 03:26:08;;;;;;;4.45;4.00;;;;;;;;;;4973396;28;20145;-87
2022/09/04 03:28:53;;;;;;;6.40;3.78;;;;;;;;;;4984227;28;20511;-87
2022/09/04 03:31:28;;;;;;;6.85;3.63;;;;;;;;;;4992292;28;20105;-87
2022/09/04 03:34:04;;;;;;;4.75;3.88;;;;;;;;;;4993226;28;20050;-87
2022/09/04 03:36:33;;;;;;;4.93;3.70;;;;;;;;;;4992334;28;20049;-87
2022/09/04 03:39:02;;;;;;;6.03;3.80;;;;;;;;;;4982051;28;20136;-88
2022/09/04 03:41:34;;;;;;;5.80;4.03;;;;;;;;;;4973822;28;20043;-87
2022/09/04 03:44:06;;;;;;;5.13;3.90;;;;;;;;;;4990548;28;20100;-87
2022/09/04 03:46:45;;;;;;;5.07;3.90;;;;;;;;;;4992191;28;20077;-88
2022/09/04 03:49:15;;;;;;;5.07;4.32;;;;;;;;;;4993514;28;20057;-87
2022/09/04 03:51:59;;;;;;;5.15;3.85;;;;;;;;;;4985828;28;20137;-88
2022/09/04 03:54:31;;;;;;;7.18;4.30;;;;;;;;;;4972681;28;20121;-88
2022/09/04 03:56:57;;;;;;;5.53;4.30;;;;;;;;;;4974336;28;20053;-87
2022/09/04 03:59:41;;;;;;;9.50;4.43;;;;;;;;;;4957627;28;20050;-87
2022/09/04 04:02:29;;;;;;;5.18;4.05;;;;;;;;;;4975233;28;20122;-87
2022/09/04 04:05:14;;;;;;;4.88;3.80;;;;;;;;;;4972109;28;20046;-87
2022/09/04 04:07:59;;;;;;;5.05;3.90;;;;;;;;;;4974781;28;20179;-88
2022/09/04 04:10:44;;;;;;;6.10;4.50;;;;;;;;;;4991362;28;20053;-87
2022/09/04 04:13:30;;;;;;;5.72;4.18;;;;;;;;;;4991754;28;20073;-87
2022/09/04 04:16:11;;;;;;;4.88;3.88;;;;;;;;;;4992582;28;20122;-87
2022/09/04 04:18:40;;;;;;;5.90;4.28;;;;;;;;;;4992561;28;20046;-87
2022/09/04 04:21:26;;;;;;;6.28;4.00;;;;;;;;;;4988439;28;20039;-87
2022/09/04 04:24:28;;;;;;;6.35;4.10;;;;;;;;;;4989821;28;20499;-87
2022/09/04 04:27:06;;;;;;;6.25;4.30;;;;;;;;;;4953759;28;20054;-87
2022/09/04 04:29:39;;;;;;;4.95;3.92;;;;;;;;;;4970493;28;20145;-88
2022/09/04 04:32:24;;;;;;;6.97;4.18;;;;;;;;;;4954169;28;20587;-87
2022/09/04 04:34:51;;;;;;;5.57;4.13;;;;;;;;;;4954336;28;20150;-87
2022/09/04 04:37:34;;;;;;;5.13;4.07;;;;;;;;;;4944668;29;20114;-88
2022/09/04 04:40:06;;;;;;;5.18;4.28;;;;;;;;;;4950893;28;20496;-88
2022/09/04 04:42:44;;;;;;;6.25;3.67;;;;;;;;;;4934504;29;20063;-87
2022/09/04 04:48:18;;;;;;;4.22;3.65;;;;;;;;;;4950735;29;20079;-87
2022/09/04 04:50:58;;;;;;;7.28;4.22;;;;;;;;;;4954199;28;20078;-87
2022/09/04 04:53:23;;;;;;;5.00;4.07;;;;;;;;;;4951746;28;20496;-88
2022/09/04 04:55:53;;;;;;;5.22;3.97;;;;;;;;;;4952966;28;20051;-87
2022/09/04 04:58:29;;;;;;;10.35;4.10;;;;;;;;;;4934807;29;20175;-87
2022/09/04 05:00:55;;;;;;;;;;;;;;;;;;4952566;28;20055;-87
2022/09/04 05:03:31;;;;;;;5.22;4.18;;;;;;;;;;5003763;28;20204;-87
2022/09/04 05:06:09;;;;;;;5.43;4.13;;;;;;;;;;4972507;28;20501;-88
2022/09/04 05:08:40;;;;;;;4.85;4.13;;;;;;;;;;4988460;28;20123;-87
2022/09/04 05:11:25;;;;;;;6.70;4.10;;;;;;;;;;4990890;28;20053;-87
2022/09/04 05:13:54;;;;;;;4.32;3.92;;;;;;;;;;4990187;28;20426;-87
2022/09/04 05:16:25;;;;;;;7.28;4.53;;;;;;;;;;4991774;28;20133;-87
2022/09/04 05:18:52;;;;;;;4.68;4.00;;;;;;;;;;4991579;28;20030;-88
2022/09/04 05:21:23;;;;;;;8.05;4.65;;;;;;;;;;4982231;28;20050;-87
2022/09/04 05:24:02;;;;;;;4.95;4.25;;;;;;;;;;4985395;28;20100;-87
2022/09/04 05:26:48;;;;;;;6.72;4.50;;;;;;;;;;4989799;28;20129;-88
2022/09/04 05:29:29;;;;;;;7.03;4.40;;;;;;;;;;4982995;28;20415;-87
2022/09/04 05:32:04;;;;;;;6.38;3.92;;;;;;;;;;4990888;28;20100;-88
2022/09/04 05:34:49;;;;;;;5.72;4.32;;;;;;;;;;4991314;28;20547;-88
2022/09/04 05:37:15;;;;;;;6.65;4.18;;;;;;;;;;4977701;28;20043;-87
2022/09/04 05:39:46;;;;;;;5.00;4.30;;;;;;;;;;4970555;28;20045;-88
2022/09/04 05:42:21;;;;;;;4.93;4.15;;;;;;;;;;4970205;28;20066;-87
2022/09/04 05:44:58;;;;;;;7.75;4.50;;;;;;;;;;4970202;28;20047;-87
2022/09/04 05:47:42;;;;;;;5.88;4.50;;;;;;;;;;4970199;28;20054;-87
2022/09/04 05:50:27;;;;;;;6.13;4.18;;;;;;;;;;4970048;28;20043;-87
2022/09/04 05:53:11;;;;;;;5.75;4.20;;;;;;;;;;4978069;28;20061;-87
2022/09/04 05:55:53;;;;;;;5.75;4.32;;;;;;;;;;4978101;28;20503;-87
2022/09/04 05:58:25;;;;;;;5.05;4.30;;;;;;;;;;4970976;28;20065;-87
2022/09/04 06:01:12;;;;;;;5.30;4.00;;;;;;;;;;4974062;28;20043;-87
2022/09/04 06:03:57;;;;;;;5.97;4.10;;;;;;;;;;4972857;28;20051;-88
2022/09/04 06:06:39;;;;;;;4.28;3.85;;;;;;;;;;4970415;28;20046;-88
2022/09/04 06:09:05;;;;;;;6.18;3.80;;;;;;;;;;4970639;28;20046;-87
2022/09/04 06:11:50;;;;;;;4.55;3.75;;;;;;;;;;4978679;28;20105;-88
2022/09/04 06:14:35;;;;;;;6.70;3.80;;;;;;;;;;4972417;28;20046;-87
2022/09/04 06:17:16;;;;;;;9.45;4.68;;;;;;;;;;4970948;28;20047;-88
2022/09/04 06:19:45;;;;;;;5.15;4.30;;;;;;;;;;4970977;28;20053;-88
2022/09/04 06:22:22;;;;;;;6.15;4.13;;;;;;;;;;4971003;28;20042;-87
2022/09/04 06:24:51;;;;;;;5.97;4.20;;;;;;;;;;4991276;28;20061;-88
2022/09/04 06:27:41;;;;;;;5.43;4.15;;;;;;;;;;4990656;28;20085;-87
2022/09/04 06:30:07;;;;;;;7.78;4.10;;;;;;;;;;4986910;28;20408;-91
2022/09/04 06:32:52;;;;;;;5.53;4.07;;;;;;;;;;4972558;28;20058;-86
2022/09/04 06:35:31;;;;;;;5.32;4.13;;;;;;;;;;4971332;28;20043;-87
2022/09/04 06:38:04;;;;;;;6.50;4.13;;;;;;;;;;4954135;28;20090;-86
2022/09/04 06:40:53;;;;;;;6.15;4.45;;;;;;;;;;4970526;28;20082;-86
2022/09/04 06:43:23;;;;;;;5.45;3.85;;;;;;;;;;4969904;28;20129;-86
2022/09/04 06:46:01;;;;;;;5.10;4.10;;;;;;;;;;4970983;28;20047;-86
2022/09/04 06:48:28;;;;;;;5.78;3.90;;;;;;;;;;4970920;28;20042;-87
2022/09/04 06:50:57;;;;;;;5.22;4.03;;;;;;;;;;4968094;28;20074;-86
2022/09/04 06:53:42;;;;;;;5.40;4.07;;;;;;;;;;4970663;28;20054;-87
2022/09/04 06:56:11;;;;;;;6.00;3.92;;;;;;;;;;4986441;28;20050;-87
2022/09/04 06:58:41;;;;;;;5.60;4.30;;;;;;;;;;4959697;28;20046;-84
2022/09/04 07:01:12;;;;;;;6.70;4.22;;;;;;;;;;4970428;28;20469;-85
2022/09/04 07:03:58;;;;;;;5.03;4.07;;;;;;;;;;4969455;28;20043;-83
2022/09/04 07:06:29;;;;;;;5.15;4.05;;;;;;;;;;4974602;28;20515;-84
2022/09/04 07:08:55;;;;;;;5.63;4.20;;;;;;;;;;4973594;28;20129;-84
2022/09/04 07:12:00;;;;;;;5.63;4.03;;;;;;;;;;4969061;28;20091;-83
2022/09/04 07:14:35;;;;;;;5.78;3.90;;;;;;;;;;4940844;28;20055;-84
2022/09/04 07:17:19;;;;;;;8.90;3.85;;;;;;;;;;4962850;28;20082;-83
2022/09/04 07:20:03;;;;;;;6.03;3.85;;;;;;;;;;4950344;28;20130;-83
2022/09/04 07:22:59;;;;;;;5.03;3.75;;;;;;;;;;4945954;29;20094;-83
2022/09/04 07:25:31;;;;;;;4.68;3.60;;;;;;;;;;4940319;28;20260;-84
2022/09/04 07:28:00;;;;;;;7.15;3.88;;;;;;;;;;4967674;28;20110;-84
2022/09/04 07:30:29;;;;;;;5.68;3.97;;;;;;;;;;4953161;28;20053;-84
2022/09/04 07:32:59;;;;;;;4.85;3.45;;;;;;;;;;4938472;29;20121;-84
2022/09/04 07:35:28;;;;;;;4.53;3.63;;;;;;;;;;4955509;28;20645;-84
2022/09/04 07:37:57;;;;;;;5.05;3.58;;;;;;;;;;4954117;28;20055;-84
2022/09/04 07:40:30;;;;;;;5.70;3.80;;;;;;;;;;4969683;28;20086;-84
2022/09/04 07:43:05;;;;;;;4.57;3.85;;;;;;;;;;4963888;28;20057;-84
2022/09/04 07:45:38;;;;;;;4.50;3.65;;;;;;;;;;4966086;28;20127;-84
2022/09/04 07:48:04;;;;;;;5.22;4.00;;;;;;;;;;4973592;28;20113;-84
2022/09/04 07:50:42;;;;;;;4.50;4.07;;;;;;;;;;4971943;28;20051;-84
2022/09/04 07:53:08;;;;;;;4.80;3.50;;;;;;;;;;4973515;28;20046;-84
2022/09/04 07:55:40;;;;;;;5.47;3.60;;;;;;;;;;4986873;28;20058;-85
2022/09/04 07:58:27;;;;;;;5.35;3.85;;;;;;;;;;4957596;28;20046;-84
2022/09/04 08:01:05;;;;;;;3.88;3.40;;;;;;;;;;4986302;28;20054;-86
2022/09/04 08:03:50;;;;;;;4.63;3.65;;;;;;;;;;4988981;28;20052;-82
2022/09/04 08:06:16;;;;;;;5.20;3.92;;;;;;;;;;4991153;28;20070;-83
2022/09/04 08:09:14;;;;;;;5.28;3.85;;;;;;;;;;4991049;28;20251;-83
2022/09/04 08:11:44;;;;;;;4.40;3.70;;;;;;;;;;4955599;28;20046;-83
2022/09/04 08:14:17;;;;;;;5.03;3.80;;;;;;;;;;4954651;28;20117;-83
2022/09/04 08:16:48;;;;;;;5.60;3.60;;;;;;;;;;4942363;29;20220;-86
2022/09/04 08:19:34;;;;;;;4.38;3.30;;;;;;;;;;4954682;28;20482;-83
2022/09/04 08:22:00;;;;;;;;;;;;;;;;;;4940837;29;20130;-83
2022/09/04 08:24:52;;;;;;;6.85;3.60;;;;;;;;;;4936853;29;19926;-83
2022/09/04 08:27:18;;;;;;;4.93;3.63;;;;;;;;;;4916320;28;20062;-83
2022/09/04 08:29:44;;;;;;;5.50;3.75;;;;;;;;;;4970292;28;20030;-83
2022/09/04 08:32:25;;;;;;;5.93;3.65;;;;;;;;;;4953915;28;20462;-83
2022/09/04 08:34:51;;;;;;;5.03;3.60;;;;;;;;;;4942308;28;20063;-83
2022/09/04 08:37:17;;;;;;;4.30;3.53;;;;;;;;;;4951870;28;20400;-83
2022/09/04 08:39:46;;;;;;;8.07;3.50;;;;;;;;;;4938322;28;20054;-83
2022/09/04 08:42:14;;;;;;;5.72;3.70;;;;;;;;;;4967364;28;20055;-83
2022/09/04 08:44:40;;;;;;;4.95;3.60;;;;;;;;;;4961675;28;20449;-83
2022/09/04 08:47:26;;;;;;;6.07;3.35;;;;;;;;;;4962218;28;20062;-82
2022/09/04 08:50:13;;;;;;;5.80;4.03;;;;;;;;;;4965140;28;20042;-82
2022/09/04 08:52:45;;;;;;;4.72;3.63;;;;;;;;;;4953640;28;20043;-83
2022/09/04 08:55:31;;;;;;;5.43;3.40;;;;;;;;;;4952730;28;20054;-83
2022/09/04 08:58:21;;;;;;;4.40;3.40;;;;;;;;;;4957658;28;20057;-83
2022/09/04 09:01:06;;;;;;;4.57;3.33;;;;;;;;;;4970998;28;20047;-83
2022/09/04 09:03:36;;;;;;;3.47;3.15;;;;;;;;;;4970675;28;20116;-83
2022/09/04 09:06:12;;;;;;;5.47;3.28;;;;;;;;;;4947228;28;20118;-83
2022/09/04 09:08:56;;;;;;;3.67;3.30;;;;;;;;;;4966077;28;20038;-83
2022/09/04 09:11:35;;;;;;;4.13;3.33;;;;;;;;;;4981838;28;20055;-84
2022/09/04 09:14:20;;;;;;;4.97;3.22;;;;;;;;;;4970485;28;20058;-87
2022/09/04 09:17:06;;;;;;;4.55;3.40;;;;;;;;;;4969958;28;20047;-88
2022/09/04 09:19:47;;;;;;;3.50;3.20;;;;;;;;;;4978020;28;20043;-85
2022/09/04 09:22:32;;;;;;;4.60;3.10;;;;;;;;;;4986644;28;20077;-86
2022/09/04 09:25:18;;;;;;;4.32;3.03;;;;;;;;;;4990376;28;20610;-90
2022/09/04 09:28:03;;;;;;;5.97;3.20;;;;;;;;;;4992091;28;20050;-87
2022/09/04 09:30:49;;;;;;;5.00;3.13;;;;;;;;;;4973547;28;20137;-86
2022/09/04 09:33:31;;;;;;;3.45;3.00;;;;;;;;;;4980375;28;20082;-89
2022/09/04 09:36:07;;;;;;;5.75;3.03;;;;;;;;;;4985895;28;20050;-91
2022/09/04 09:38:50;;;;;;;5.07;3.30;;;;;;;;;;4987886;28;20045;-86
2022/09/04 09:41:31;;;;;;;6.10;3.10;;;;;;;;;;4969740;28;20050;-86
2022/09/04 09:43:57;;;;;;;4.65;2.95;;;;;;;;;;4987036;28;20046;-86
2022/09/04 09:46:37;;;;;;;3.55;3.00;;;;;;;;;;4990465;28;20229;-86
2022/09/04 09:49:10;;;;;;;4.00;2.83;;;;;;;;;;4977401;28;20063;-86
2022/09/04 09:52:05;;;;;;;3.70;2.85;;;;;;;;;;4971571;28;20061;-86
2022/09/04 09:54:31;;;;;;;3.97;3.00;;;;;;;;;;4961304;28;20090;-86
2022/09/04 09:56:57;;;;;;;3.33;3.03;;;;;;;;;;4971173;28;20246;-86
2022/09/04 09:59:38;;;;;;;5.55;2.65;;;;;;;;;;4985562;28;20038;-87
2022/09/04 10:02:06;;;;;;;4.57;2.63;;;;;;;;;;4981350;28;20046;-89
2022/09/04 10:04:48;;;;;;;3.30;2.72;;;;;;;;;;4987828;28;20474;-85
2022/09/04 10:07:25;;;;;;;4.15;2.60;;;;;;;;;;4981322;28;20046;-85
2022/09/04 10:10:09;;;;;;;4.75;3.08;;;;;;;;;;4986853;28;20495;-84
2022/09/04 10:12:38;;;;;;;4.97;3.20;;;;;;;;;;4988438;28;20058;-85
2022/09/04 10:15:08;;;;;;;3.45;3.00;;;;;;;;;;4987661;28;20050;-84
2022/09/04 10:17:37;;;;;;;5.38;2.72;;;;;;;;;;4973653;28;20086;-85
2022/09/04 10:20:26;;;;;;;4.18;3.10;;;;;;;;;;4972700;28;20051;-84
2022/09/04 10:23:05;;;;;;;3.35;3.00;;;;;;;;;;4969787;28;20066;-84
2022/09/04 10:25:43;;;;;;;4.05;2.90;;;;;;;;;;4953719;28;20083;-85
2022/09/04 10:28:21;;;;;;;5.13;3.00;;;;;;;;;;4971679;28;20047;-85
2022/09/04 10:30:58;;;;;;;3.88;3.00;;;;;;;;;;4971926;28;20073;-84
2022/09/04 10:33:37;;;;;;;5.65;3.10;;;;;;;;;;4971615;28;20046;-87
2022/09/04 10:36:18;;;;;;;5.90;3.03;;;;;;;;;;4972259;28;20105;-85
2022/09/04 10:41:39;;;;;;;3.00;2.70;;;;;;;;;;4973800;28;20082;-84
2022/09/04 10:44:08;;;;;;;4.50;3.50;;;;;;;;;;4978199;28;20050;-84
2022/09/04 10:46:37;;;;;;;5.57;3.55;;;;;;;;;;4988999;28;20247;-84
2022/09/04 10:49:06;;;;;;;4.90;3.45;;;;;;;;;;4989297;28;20050;-84
2022/09/04 10:51:44;;;;;;;5.70;3.40;;;;;;;;;;4987408;28;20103;-86
2022/09/04 10:54:24;;;;;;;3.78;3.38;;;;;;;;;;4969309;28;20050;-85
2022/09/04 10:56:54;;;;;;;4.32;3.28;;;;;;;;;;4972418;28;20569;-85
2022/09/04 10:59:26;;;;;;;4.88;3.20;;;;;;;;;;4983161;28;20129;-85
2022/09/04 11:01:55;;;;;;;8.27;3.88;;;;;;;;;;4977937;28;20106;-85
2022/09/04 11:04:27;;;;;;;4.03;3.10;;;;;;;;;;4976955;28;20043;-85
2022/09/04 11:07:08;;;;;;;4.45;2.90;;;;;;;;;;4974401;28;20038;-85
2022/09/04 11:09:43;;;;;;;2.80;2.50;;;;;;;;;;4974296;28;20820;-85
2022/09/04 11:12:19;;;;;;;7.75;2.80;;;;;;;;;;4956260;28;20058;-85
2022/09/04 11:14:56;;;;;;;3.08;2.70;;;;;;;;;;4979424;28;20530;-85
2022/09/04 11:17:40;;;;;;;4.25;2.80;;;;;;;;;;4972970;28;20042;-85
2022/09/04 11:20:25;;;;;;;5.18;2.67;;;;;;;;;;4975463;28;20135;-85
2022/09/04 11:23:08;;;;;;;3.10;2.72;;;;;;;;;;4994116;28;20051;-85
2022/09/04 11:25:53;;;;;;;3.65;2.60;;;;;;;;;;4988988;28;20098;-85
2022/09/04 11:28:34;;;;;;;3.60;2.80;;;;;;;;;;4992820;28;20038;-85
2022/09/04 11:31:00;;;;;;;2.88;2.55;;;;;;;;;;4992180;28;20145;-84
2022/09/04 11:33:40;;;;;;;4.78;2.88;;;;;;;;;;4992552;28;20046;-85
2022/09/04 11:36:25;;;;;;;3.90;2.80;;;;;;;;;;4987541;28;20602;-85
2022/09/04 11:38:51;;;;;;;4.25;2.85;;;;;;;;;;4981115;28;20280;-85
2022/09/04 11:41:36;;;;;;;4.72;2.90;;;;;;;;;;4985345;28;20042;-85
2022/09/04 11:44:21;;;;;;;4.43;2.80;;;;;;;;;;4975675;28;20082;-85
2022/09/04 11:47:02;;;;;;;6.53;2.65;;;;;;;;;;4974072;28;20145;-85
2022/09/04 11:49:39;;;;;;;4.05;2.58;;;;;;;;;;4980661;28;20097;-85
2022/09/04 11:52:11;;;;;;;4.57;2.75;;;;;;;;;;4992584;28;20057;-85
2022/09/04 11:54:37;;;;;;;4.05;2.60;;;;;;;;;;4991118;28;20129;-85
2022/09/04 11:57:24;;;;;;;3.95;2.72;;;;;;;;;;4991083;28;20100;-85
2022/09/04 12:00:04;;;;;;;3.17;2.40;;;;;;;;;;4991487;28;20399;-85
2022/09/04 12:02:33;;;;;;;4.95;2.63;;;;;;;;;;4993188;28;20081;-85
2022/09/04 12:05:19;;;;;;;4.85;2.70;;;;;;;;;;4977537;28;20121;-85
2022/09/04 12:08:01;;;;;;;5.95;2.72;;;;;;;;;;4972453;28;20057;-85
2022/09/04 12:10:46;;;;;;;4.60;2.35;;;;;;;;;;4986818;28;20051;-85
2022/09/04 12:13:21;;;;;;;2.97;2.65;;;;;;;;;;4992421;28;20066;-85
2022/09/04 12:15:59;;;;;;;3.05;2.50;;;;;;;;;;4991440;28;20050;-85
2022/09/04 12:18:40;;;;;;;4.93;2.60;;;;;;;;;;4991634;28;20129;-85
2022/09/04 12:21:25;;;;;;;3.25;2.60;;;;;;;;;;4992584;28;20064;-85
2022/09/04 12:24:09;;;;;;;3.05;2.30;;;;;;;;;;4992745;28;20042;-85
2022/09/04 12:26:54;;;;;;;4.95;2.50;;;;;;;;;;4985494;28;20038;-85
2022/09/04 12:29:29;;;;;;;3.38;2.40;;;;;;;;;;4973609;28;20054;-86
2022/09/04 12:32:13;;;;;;;6.93;2.60;;;;;;;;;;4986653;28;20054;-82
2022/09/04 12:34:57;;;;;;;3.63;2.50;;;;;;;;;;4988657;28;20129;-85
2022/09/04 12:37:35;;;;;;;4.95;2.58;;;;;;;;;;4971783;28;20050;-85
2022/09/04 12:40:12;;;;;;;3.40;2.60;;;;;;;;;;4955468;28;20352;-84
2022/09/04 12:42:56;;;;;;;3.40;2.70;;;;;;;;;;4987857;28;20474;-85
2022/09/04 12:45:41;;;;;;;4.40;2.70;;;;;;;;;;4990404;28;20395;-84
2022/09/04 12:48:17;;;;;;;5.00;2.72;;;;;;;;;;4961873;28;20093;-84
2022/09/04 12:50:57;;;;;;;3.30;2.70;;;;;;;;;;4971509;28;20508;-84
2022/09/04 12:53:35;;;;;;;3.10;2.60;;;;;;;;;;4970522;28;20046;-84
2022/09/04 12:56:02;;;;;;;5.00;2.72;;;;;;;;;;4985660;28;20050;-84
2022/09/04 12:58:51;;;;;;;2.95;2.60;;;;;;;;;;4985191;28;20043;-84
2022/09/04 13:01:36;;;;;;;5.80;2.60;;;;;;;;;;4980291;28;20054;-84
2022/09/04 13:04:05;;;;;;;3.70;2.70;;;;;;;;;;4980151;28;20129;-84
2022/09/04 13:06:38;;;;;;;5.95;2.72;;;;;;;;;;4984178;28;20057;-84
2022/09/04 13:09:10;;;;;;;2.92;2.60;;;;;;;;;;4991258;28;20053;-84
2022/09/04 13:11:49;;;;;;;2.95;2.65;;;;;;;;;;4975059;28;20459;-84
2022/09/04 13:14:18;;;;;;;6.97;2.72;;;;;;;;;;4971819;28;20059;-84
2022/09/04 13:17:03;;;;;;;3.17;2.40;;;;;;;;;;4980988;28;20050;-84
2022/09/04 13:19:43;;;;;;;4.18;2.75;;;;;;;;;;4975625;28;20440;-84
2022/09/04 13:22:25;;;;;;;5.47;2.78;;;;;;;;;;4980861;28;20059;-84
2022/09/04 13:24:58;;;;;;;4.35;2.67;;;;;;;;;;4991792;28;20105;-84
2022/09/04 13:27:39;;;;;;;3.90;2.42;;;;;;;;;;4975185;28;20042;-84
2022/09/04 13:30:16;;;;;;;2.97;2.25;;;;;;;;;;4981152;28;20069;-84
2022/09/04 13:32:51;;;;;;;3.60;2.83;;;;;;;;;;4981492;28;20454;-84
2022/09/04 13:35:40;;;;;;;2.90;2.60;;;;;;;;;;4990283;28;20038;-82
2022/09/04 13:38:06;;;;;;;4.43;2.90;;;;;;;;;;4989535;28;20130;-82
2022/09/04 13:40:53;;;;;;;2.60;2.40;;;;;;;;;;4991283;28;20522;-82
2022/09/04 13:43:39;;;;;;;3.40;2.42;;;;;;;;;;4976551;28;20054;-82
2022/09/04 13:46:11;;;;;;;3.92;2.60;;;;;;;;;;4989846;28;20492;-82
2022/09/04 13:48:42;;;;;;;3.78;2.50;;;;;;;;;;4989947;28;20042;-82
2022/09/04 13:51:23;;;;;;;5.20;2.75;;;;;;;;;;4977150;28;20046;-82
2022/09/04 13:54:07;;;;;;;4.70;2.60;;;;;;;;;;4972193;28;20086;-84
2022/09/04 13:56:43;;;;;;;4.57;3.08;;;;;;;;;;4976611;28;20035;-86
2022/09/04 13:59:13;;;;;;;7.18;2.70;;;;;;;;;;4970860;28;20050;-84
2022/09/04 14:01:44;;;;;;;3.78;2.60;;;;;;;;;;4976918;28;20549;-84
2022/09/04 14:04:15;;;;;;;6.03;2.83;;;;;;;;;;4971161;28;20181;-84
2022/09/04 14:06:41;;;;;;;3.40;2.60;;;;;;;;;;4957258;28;20053;-83
2022/09/04 14:09:07;;;;;;;3.92;2.53;;;;;;;;;;4988609;28;20046;-83
2022/09/04 14:11:36;;;;;;;5.07;2.60;;;;;;;;;;4984019;28;20475;-83
2022/09/04 14:14:22;;;;;;;3.42;2.70;;;;;;;;;;4984096;28;20054;-83
2022/09/04 14:16:49;;;;;;;;;;;;;;;;;;4986141;28;20050;-83
2022/09/04 14:19:23;;;;;;;4.30;2.78;;;;;;;;;;4983651;28;19925;-83
2022/09/04 14:21:54;;;;;;;3.67;2.60;;;;;;;;;;4985697;28;20050;-83
2022/09/04 14:24:31;;;;;;;4.32;2.92;;;;;;;;;;4982437;28;20097;-83
2022/09/04 14:27:17;;;;;;;5.32;2.50;;;;;;;;;;4969440;28;20051;-83
2022/09/04 14:30:02;;;;;;;3.75;2.70;;;;;;;;;;4969951;28;20449;-83
2022/09/04 14:32:31;;;;;;;3.65;2.65;;;;;;;;;;4986127;28;20073;-83
2022/09/04 14:35:16;;;;;;;2.97;2.53;;;;;;;;;;4988559;28;20054;-83
2022/09/04 14:37:48;;;;;;;2.95;2.60;;;;;;;;;;4986552;28;20513;-83
2022/09/04 14:40:16;;;;;;;2.67;2.47;;;;;;;;;;4988759;28;20054;-83
2022/09/04 14:42:48;;;;;;;3.33;2.65;;;;;;;;;;4981106;28;20039;-82
2022/09/04 14:45:14;;;;;;;5.07;2.70;;;;;;;;;;4970862;28;20113;-83
2022/09/04 14:47:41;;;;;;;3.67;2.30;;;;;;;;;;4975770;28;20042;-83
2022/09/04 14:50:08;;;;;;;3.13;2.83;;;;;;;;;;4981663;28;20050;-83
2022/09/04 14:52:48;;;;;;;3.28;2.75;;;;;;;;;;4979048;28;20046;-83
2022/09/04 14:55:23;;;;;;;3.72;2.50;;;;;;;;;;4973663;28;20079;-83
2022/09/04 14:57:54;;;;;;;3.03;2.72;;;;;;;;;;4977788;28;20056;-83
2022/09/04 15:00:22;;;;;;;3.10;2.75;;;;;;;;;;4954731;28;20089;-83
2022/09/04 15:03:07;;;;;;;4.60;2.60;;;;;;;;;;4976495;28;20050;-82
2022/09/04 15:05:34;;;;;;;3.30;2.33;;;;;;;;;;5046902;23;20411;-85
2022/09/04 15:08:02;;;;;;;3.88;2.83;;;;;;;;;;4947956;28;20055;-83
2022/09/04 15:10:35;;;;;;;3.20;2.70;;;;;;;;;;4950187;29;20118;-84
2022/09/04 15:13:19;;;;;;;4.70;2.30;;;;;;;;;;4951057;28;20052;-83
2022/09/04 15:15:50;;;;;;;2.78;2.33;;;;;;;;;;4948521;28;20492;-83
2022/09/04 15:18:18;;;;;;;4.10;2.90;;;;;;;;;;4944049;28;20057;-84
2022/09/04 15:20:52;;;;;;;2.90;2.60;;;;;;;;;;4932483;29;20044;-84
2022/09/04 15:23:30;;;;;;;3.45;2.70;;;;;;;;;;4949748;29;20040;-84
2022/09/04 15:26:01;;;;;;;2.60;2.40;;;;;;;;;;4948410;29;20211;-83
2022/09/04 15:28:27;;;;;;;3.95;2.75;;;;;;;;;;4941538;28;20091;-84
2022/09/04 15:31:10;;;;;;;4.28;2.65;;;;;;;;;;4954279;28;20067;-83
2022/09/04 15:33:37;;;;;;;4.75;2.95;;;;;;;;;;4950533;29;20049;-88
2022/09/04 15:36:07;;;;;;;3.88;2.70;;;;;;;;;;4950589;28;20047;-82
2022/09/04 15:38:34;;;;;;;4.82;2.80;;;;;;;;;;4949990;28;20055;-83
2022/09/04 15:41:18;;;;;;;4.15;2.63;;;;;;;;;;4948291;29;20050;-83
2022/09/04 15:43:47;;;;;;;3.60;2.50;;;;;;;;;;4950861;28;20048;-84